Time;durP1;ratioP1;P1;durP2;ratioP2;P2;SDS_P1;SDS_P2;PMS_P1;PMS_P2;Temp;Humidity;BMP_temperature;BMP_pressure;BME280_temperature;BME280_humidity;BME280_pressure;Samples;Min_cycle;Max_cycle;Signal;HPM_P1;HPM_P2
2022/01/01 00:00:08;;;;;;;55.63;38.28;;;230.70;2252.80;;;;;;5054453;28;20544;-65
2022/01/01 00:02:35;;;;;;;59.78;40.92;;;230.70;2252.80;;;;;;5055022;28;20033;-71
2022/01/01 00:05:01;;;;;;;66.50;48.10;;;;;;;;;;5054762;28;20036;-74
2022/01/01 00:07:27;;;;;;;77.70;54.10;;;;;;;;;;5054733;28;20029;-68
2022/01/01 00:09:53;;;;;;;63.78;44.30;;;;;;;;;;5054536;28;20017;-75
2022/01/01 00:12:19;;;;;;;58.20;42.03;;;230.80;2252.80;;;;;;5054367;28;20108;-71
2022/01/01 00:14:45;;;;;;;73.13;53.70;;;230.80;2252.80;;;;;;5054390;28;20108;-77
2022/01/01 00:17:11;;;;;;;64.55;45.78;;;;;;;;;;5054648;28;20108;-74
2022/01/01 00:19:38;;;;;;;74.45;56.92;;;;;;;;;;5054436;28;20086;-76
2022/01/01 00:22:07;;;;;;;66.38;51.88;;;;;;;;;;5054527;28;20013;-64
2022/01/01 00:24:33;;;;;;;70.03;54.78;;;;;;;;;;5054327;28;20029;-66
2022/01/01 00:27:00;;;;;;;57.38;38.75;;;;;;;;;;5054247;28;20025;-71
2022/01/01 00:29:25;;;;;;;55.55;36.60;;;230.90;2252.80;;;;;;5054295;28;20031;-72
2022/01/01 00:31:51;;;;;;;62.15;41.13;;;230.90;2252.80;;;;;;5053998;28;20049;-74
2022/01/01 00:34:17;;;;;;;62.80;43.20;;;231.20;2252.80;;;;;;5054280;28;20037;-66
2022/01/01 00:36:43;;;;;;;63.65;44.45;;;;;;;;;;5053802;28;20021;-67
2022/01/01 00:39:09;;;;;;;78.07;51.13;;;;;;;;;;5053932;28;20025;-77
2022/01/01 00:41:35;;;;;;;72.57;47.42;;;;;;;;;;5053978;28;20064;-77
2022/01/01 00:44:01;;;;;;;62.63;42.35;;;231.00;2252.80;;;;;;5053916;28;20025;-75
2022/01/01 00:46:26;;;;;;;63.42;41.80;;;230.80;2252.80;;;;;;5053991;28;20032;-63
2022/01/01 00:48:53;;;;;;;173.88;99.90;;;;;;;;;;5053740;28;20095;-65
2022/01/01 00:51:23;;;;;;;173.02;117.13;;;230.70;2252.80;;;;;;5053647;28;20021;-64
2022/01/01 00:53:50;;;;;;;219.80;138.65;;;230.70;2252.80;;;;;;5053718;28;20035;-63
2022/01/01 00:56:16;;;;;;;174.20;113.40;;;230.60;2252.80;;;;;;5053570;28;20013;-64
2022/01/01 00:58:42;;;;;;;156.35;103.60;;;230.80;2252.80;;;;;;5053836;28;20404;-64
2022/01/01 01:01:08;;;;;;;121.85;78.20;;;231.20;2252.80;;;;;;5053691;28;20120;-77
2022/01/01 01:03:34;;;;;;;97.22;61.63;;;231.20;2252.80;;;;;;5053590;28;20112;-77
2022/01/01 01:06:00;;;;;;;95.82;59.72;;;231.30;2252.80;;;;;;5052346;28;20025;-74
2022/01/01 01:08:27;;;;;;;89.75;56.40;;;;;;;;;;5033746;28;20025;-69
2022/01/01 01:10:55;;;;;;;81.38;52.00;;;;;;;;;;5035726;28;20543;-67
2022/01/01 01:13:21;;;;;;;85.53;54.90;;;;;;;;;;5033491;28;20065;-67
2022/01/01 01:15:47;;;;;;;87.32;54.97;;;;;;;;;;5033853;28;20112;-65
2022/01/01 01:18:14;;;;;;;92.07;55.60;;;;;;;;;;5032767;28;20018;-69
2022/01/01 01:20:41;;;;;;;90.00;58.83;;;;;;;;;;5031607;28;20027;-67
2022/01/01 01:23:07;;;;;;;92.05;57.40;;;;;;;;;;5033173;28;20010;-67
2022/01/01 01:25:42;;;;;;;94.50;59.80;;;;;;;;;;5032940;28;20025;-69
2022/01/01 01:28:08;;;;;;;93.07;60.78;;;231.10;2252.80;;;;;;5032889;28;20451;-61
2022/01/01 01:30:35;;;;;;;106.13;65.28;;;;;;;;;;5032531;28;20403;-70
2022/01/01 01:33:01;;;;;;;105.78;64.78;;;;;;;;;;5032802;28;20423;-69
2022/01/01 01:35:28;;;;;;;92.55;62.72;;;;;;;;;;5032630;28;20383;-64
2022/01/01 01:37:54;;;;;;;84.43;54.08;;;;;;;;;;5032827;28;20025;-63
2022/01/01 01:40:20;;;;;;;64.07;45.20;;;;;;;;;;5039603;28;20115;-67
2022/01/01 01:42:47;;;;;;;72.60;47.60;;;;;;;;;;5046981;28;20021;-70
2022/01/01 01:45:17;;;;;;;71.72;48.50;;;;;;;;;;5052811;28;20024;-66
2022/01/01 01:47:43;;;;;;;83.75;53.97;;;;;;;;;;5046701;28;20021;-72
2022/01/01 01:50:10;;;;;;;83.25;53.97;;;;;;;;;;5048033;28;20021;-71
2022/01/01 01:52:37;;;;;;;71.25;48.50;;;;;;;;;;5052601;28;20114;-72
2022/01/01 01:55:08;;;;;;;83.13;56.35;;;;;;;;;;5052486;28;20564;-72
2022/01/01 01:57:35;;;;;;;69.70;48.23;;;;;;;;;;5052681;28;20029;-68
2022/01/01 02:00:01;;;;;;;61.83;42.90;;;;;;;;;;5052477;28;20277;-70
2022/01/01 02:02:27;;;;;;;51.28;35.00;;;;;;;;;;5052655;28;20356;-71
2022/01/01 02:04:53;;;;;;;48.83;33.53;;;;;;;;;;5052561;28;20125;-67
2022/01/01 02:07:21;;;;;;;52.17;34.50;;;;;;;;;;5052459;28;20083;-66
2022/01/01 02:09:47;;;;;;;57.22;35.60;;;;;;;;;;5052154;28;20489;-69
2022/01/01 02:12:13;;;;;;;55.63;34.58;;;;;;;;;;5052506;28;20021;-70
2022/01/01 02:17:14;;;;;;;48.55;33.35;;;;;;;;;;5056977;28;20542;-69
2022/01/01 02:19:44;;;;;;;49.47;33.28;;;;;;;;;;5056687;28;20033;-69
2022/01/01 02:22:11;;;;;;;48.78;33.90;;;;;;;;;;5056446;28;20082;-66
2022/01/01 02:24:37;;;;;;;46.13;30.77;;;;;;;;;;5056271;28;20021;-68
2022/01/01 02:27:03;;;;;;;46.35;28.83;;;;;;;;;;5056355;28;20524;-68
2022/01/01 02:29:29;;;;;;;38.67;26.88;;;205.10;2252.80;;;;;;5056414;28;20028;-66
2022/01/01 02:31:55;;;;;;;36.00;25.52;;;205.00;2252.80;;;;;;5056185;28;20048;-66
2022/01/01 02:34:21;;;;;;;38.00;25.55;;;205.00;2252.80;;;;;;5056337;28;20467;-67
2022/01/01 02:36:47;;;;;;;40.13;26.98;;;;;;;;;;5056002;28;20017;-64
2022/01/01 02:39:17;;;;;;;43.78;28.55;;;;;;;;;;5055903;28;20031;-66
2022/01/01 02:41:44;;;;;;;39.67;27.27;;;;;;;;;;5056285;28;20029;-68
2022/01/01 02:44:11;;;;;;;39.83;26.70;;;205.30;2252.80;;;;;;5056228;28;20433;-67
2022/01/01 02:46:37;;;;;;;38.85;26.23;;;205.50;2252.80;;;;;;5056103;28;20112;-68
2022/01/01 02:49:03;;;;;;;38.70;25.90;;;205.60;2252.80;;;;;;5056083;28;20036;-70
2022/01/01 02:51:29;;;;;;;36.58;24.75;;;205.30;2252.80;;;;;;5056065;28;20028;-61
2022/01/01 02:53:56;;;;;;;38.00;24.65;;;;;;;;;;5056039;28;20116;-68
2022/01/01 02:56:22;;;;;;;39.53;25.90;;;;;;;;;;5055988;28;20025;-68
2022/01/01 02:58:48;;;;;;;32.63;22.13;;;;;;;;;;5055925;28;20479;-70
2022/01/01 03:01:14;;;;;;;31.50;22.42;;;;;;;;;;5055711;28;20083;-71
2022/01/01 03:03:41;;;;;;;28.27;19.92;;;180.10;2252.80;;;;;;5055905;28;20402;-67
2022/01/01 03:06:07;;;;;;;27.52;18.73;;;180.00;2252.80;;;;;;5055733;28;20074;-72
2022/01/01 03:08:33;;;;;;;24.67;17.83;;;180.00;2252.80;;;;;;5055564;28;20033;-65
2022/01/01 03:11:02;;;;;;;27.70;19.02;;;;;;;;;;5055579;28;20689;-70
2022/01/01 03:13:28;;;;;;;31.73;18.83;;;;;;;;;;5054402;28;20032;-68
2022/01/01 03:15:54;;;;;;;28.63;19.45;;;;;;;;;;5055611;28;20037;-68
2022/01/01 03:18:20;;;;;;;26.38;18.17;;;;;;;;;;5055644;28;20025;-66
2022/01/01 03:20:46;;;;;;;28.55;18.63;;;;;;;;;;5054149;28;20183;-69
2022/01/01 03:23:12;;;;;;;23.83;17.45;;;;;;;;;;5055314;28;20025;-69
2022/01/01 03:25:38;;;;;;;27.45;18.40;;;;;;;;;;5055254;28;20104;-68
2022/01/01 03:28:05;;;;;;;28.90;19.73;;;;;;;;;;5055436;28;20051;-70
2022/01/01 03:30:32;;;;;;;28.67;20.15;;;;;;;;;;5055178;28;20037;-71
2022/01/01 03:32:58;;;;;;;35.70;20.83;;;;;;;;;;5055077;28;20028;-71
2022/01/01 03:35:24;;;;;;;35.03;21.00;;;;;;;;;;5055232;28;20025;-70
2022/01/01 03:37:50;;;;;;;28.48;18.88;;;;;;;;;;5055069;28;20025;-70
2022/01/01 03:40:16;;;;;;;26.05;16.70;;;;;;;;;;5055054;28;20022;-72
2022/01/01 03:42:42;;;;;;;21.13;15.07;;;;;;;;;;5055121;28;20025;-71
2022/01/01 03:45:09;;;;;;;22.52;14.75;;;;;;;;;;5055143;28;20021;-68
2022/01/01 03:47:35;;;;;;;20.95;15.32;;;;;;;;;;5053822;28;20055;-68
2022/01/01 03:50:01;;;;;;;25.20;17.15;;;;;;;;;;5055016;28;20025;-71
2022/01/01 03:52:28;;;;;;;19.92;13.88;;;;;;;;;;5054802;28;20021;-71
2022/01/01 03:54:54;;;;;;;23.63;15.82;;;;;;;;;;5054659;28;20048;-71
2022/01/01 03:57:21;;;;;;;21.05;15.50;;;;;;;;;;5054821;28;20029;-72
2022/01/01 03:59:47;;;;;;;21.92;14.93;;;204.80;2252.80;;;;;;5054757;28;20169;-65
2022/01/01 04:02:14;;;;;;;21.75;15.40;;;180.10;2252.80;;;;;;5054694;28;20025;-67
2022/01/01 04:04:40;;;;;;;21.75;14.40;;;180.10;2252.80;;;;;;5054568;28;20124;-66
2022/01/01 04:07:08;;;;;;;22.38;14.32;;;180.10;2252.80;;;;;;5054679;28;20079;-66
2022/01/01 04:09:33;;;;;;;27.02;15.07;;;180.10;2252.80;;;;;;5054078;28;20032;-66
2022/01/01 04:11:59;;;;;;;17.55;12.27;;;180.10;2252.80;;;;;;5054517;28;20467;-69
2022/01/01 04:14:25;;;;;;;18.88;12.88;;;180.10;2252.80;;;;;;5054395;28;20032;-69
2022/01/01 04:16:52;;;;;;;18.83;13.20;;;204.80;2252.80;;;;;;5054316;28;20021;-66
2022/01/01 04:19:23;;;;;;;20.80;14.27;;;204.80;2252.80;;;;;;5054480;28;20047;-67
2022/01/01 04:21:49;;;;;;;20.65;14.60;;;204.80;2252.80;;;;;;5054361;28;20495;-67
2022/01/01 04:24:14;;;;;;;20.98;15.07;;;204.80;2252.80;;;;;;5054071;28;20056;-68
2022/01/01 04:26:40;;;;;;;21.45;14.82;;;204.80;2252.80;;;;;;5054143;28;20063;-65
2022/01/01 04:29:06;;;;;;;20.92;13.98;;;204.90;2252.80;;;;;;5054182;28;20032;-67
2022/01/01 04:31:32;;;;;;;18.73;13.05;;;204.80;2252.80;;;;;;5053936;28;20033;-67
2022/01/01 04:33:58;;;;;;;18.60;11.90;;;204.80;2252.80;;;;;;5053946;28;20043;-67
2022/01/01 04:36:24;;;;;;;23.60;12.93;;;204.80;2252.80;;;;;;5053537;28;20490;-66
2022/01/01 04:38:49;;;;;;;16.88;11.57;;;204.80;2252.80;;;;;;5053621;28;20079;-68
2022/01/01 04:41:16;;;;;;;17.98;12.52;;;204.90;2252.80;;;;;;5053863;28;20021;-68
2022/01/01 04:43:43;;;;;;;20.33;13.73;;;204.90;2252.80;;;;;;5053996;28;20025;-69
2022/01/01 04:46:10;;;;;;;24.40;16.80;;;;;;;;;;5054072;28;20048;-66
2022/01/01 04:48:37;;;;;;;22.65;16.63;;;;;;;;;;5053663;28;20029;-63
2022/01/01 04:51:07;;;;;;;20.88;14.63;;;;;;;;;;5053737;28;20530;-70
2022/01/01 04:53:39;;;;;;;23.40;14.10;;;;;;;;;;5053520;28;20120;-70
2022/01/01 04:56:07;;;;;;;21.55;14.85;;;;;;;;;;5053915;28;20092;-65
2022/01/01 04:58:34;;;;;;;24.45;14.88;;;;;;;;;;5053506;28;20430;-66
2022/01/01 05:01:00;;;;;;;22.00;15.00;;;;;;;;;;5053468;28;20032;-68
2022/01/01 05:03:26;;;;;;;27.20;17.83;;;;;;;;;;5053625;28;20052;-66
2022/01/01 05:05:52;;;;;;;25.50;16.88;;;;;;;;;;5053395;28;20025;-66
2022/01/01 05:08:18;;;;;;;32.92;22.25;;;;;;;;;;5053481;28;20021;-69
2022/01/01 05:10:44;;;;;;;30.23;21.42;;;;;;;;;;5053188;28;20038;-67
2022/01/01 05:13:10;;;;;;;37.40;24.05;;;;;;;;;;5053351;28;20288;-67
2022/01/01 05:15:36;;;;;;;37.90;23.85;;;;;;;;;;5053457;28;20029;-67
2022/01/01 05:18:02;;;;;;;33.83;21.88;;;;;;;;;;5053352;28;20025;-66
2022/01/01 05:20:28;;;;;;;35.08;21.60;;;;;;;;;;5053531;28;20389;-66
2022/01/01 05:22:55;;;;;;;35.70;21.50;;;;;;;;;;5052896;28;20025;-66
2022/01/01 05:25:21;;;;;;;31.08;19.63;;;;;;;;;;5052994;28;20032;-67
2022/01/01 05:27:47;;;;;;;28.92;17.48;;;;;;;;;;5053206;28;20055;-66
2022/01/01 05:30:13;;;;;;;28.50;18.10;;;;;;;;;;5052869;28;20407;-69
2022/01/01 05:32:39;;;;;;;23.98;16.58;;;;;;;;;;5053092;28;20036;-66
2022/01/01 05:35:05;;;;;;;23.92;15.15;;;;;;;;;;5052977;28;20044;-66
2022/01/01 05:37:32;;;;;;;25.75;14.98;;;;;;;;;;5053010;28;20471;-66
2022/01/01 05:39:58;;;;;;;19.00;13.98;;;;;;;;;;5052472;28;20025;-65
2022/01/01 05:42:24;;;;;;;19.25;13.18;;;;;;;;;;5053020;28;20463;-66
2022/01/01 05:44:50;;;;;;;15.32;10.27;;;;;;;;;;5052761;28;20533;-69
2022/01/01 05:47:16;;;;;;;14.88;10.55;;;;;;;;;;5050956;28;20021;-68
2022/01/01 05:49:42;;;;;;;18.40;11.88;;;;;;;;;;5052631;28;20025;-67
2022/01/01 05:52:08;;;;;;;16.05;10.88;;;;;;;;;;5052836;28;20436;-65
2022/01/01 05:54:35;;;;;;;18.92;12.20;;;;;;;;;;5051098;28;20380;-65
2022/01/01 05:57:01;;;;;;;18.83;13.23;;;;;;;;;;5052721;28;20036;-67
2022/01/01 05:59:28;;;;;;;23.10;13.82;;;;;;;;;;5052680;28;20032;-66
2022/01/01 06:01:54;;;;;;;20.90;14.55;;;;;;;;;;5052624;28;20025;-70
2022/01/01 06:04:20;;;;;;;20.35;11.65;;;;;;;;;;5052764;28;20115;-65
2022/01/01 06:06:46;;;;;;;26.13;18.02;;;;;;;;;;5052517;28;20468;-69
2022/01/01 06:09:12;;;;;;;26.48;17.40;;;;;;;;;;5052355;28;20029;-68
2022/01/01 06:11:39;;;;;;;51.08;28.63;;;;;;;;;;5052244;28;20013;-68
2022/01/01 06:14:05;;;;;;;38.28;22.85;;;;;;;;;;5052697;28;20379;-66
2022/01/01 06:16:31;;;;;;;29.75;20.25;;;;;;;;;;5052531;28;20025;-67
2022/01/01 06:18:57;;;;;;;35.17;23.42;;;;;;;;;;5052263;28;20029;-67
2022/01/01 06:21:23;;;;;;;28.90;20.02;;;;;;;;;;5052484;28;20485;-67
2022/01/01 06:23:49;;;;;;;30.48;21.08;;;;;;;;;;5052330;28;20482;-65
2022/01/01 06:26:15;;;;;;;26.13;16.85;;;;;;;;;;5052149;28;20383;-68
2022/01/01 06:28:41;;;;;;;29.73;18.65;;;;;;;;;;5052488;28;20056;-66
2022/01/01 06:31:07;;;;;;;33.72;23.38;;;;;;;;;;5052070;28;20053;-65
2022/01/01 06:33:34;;;;;;;38.78;23.92;;;;;;;;;;5052396;28;20029;-65
2022/01/01 06:36:00;;;;;;;34.83;23.00;;;;;;;;;;5052405;28;20040;-71
2022/01/01 06:38:26;;;;;;;34.72;23.25;;;;;;;;;;5052400;28;20025;-68
2022/01/01 06:40:52;;;;;;;31.88;20.45;;;;;;;;;;5051981;28;20525;-70
2022/01/01 06:43:21;;;;;;;29.80;20.67;;;;;;;;;;5052355;28;20025;-67
2022/01/01 06:45:48;;;;;;;35.50;22.48;;;;;;;;;;5052279;28;20043;-66
2022/01/01 06:48:14;;;;;;;41.17;26.23;;;;;;;;;;5052357;28;20027;-67
2022/01/01 06:50:40;;;;;;;48.25;28.48;;;;;;;;;;5052244;28;20029;-67
2022/01/01 06:53:06;;;;;;;42.17;26.88;;;;;;;;;;5052128;28;20067;-67
2022/01/01 06:55:32;;;;;;;43.75;26.90;;;;;;;;;;5051883;28;20032;-67
2022/01/01 06:57:58;;;;;;;38.55;25.90;;;;;;;;;;5050821;28;20029;-67
2022/01/01 07:00:24;;;;;;;34.35;21.63;;;;;;;;;;5055267;28;20036;-68
2022/01/01 07:02:50;;;;;;;31.73;20.65;;;;;;;;;;5055846;28;20033;-68
2022/01/01 07:05:16;;;;;;;29.67;21.10;;;;;;;;;;5054703;28;20025;-68
2022/01/01 07:07:43;;;;;;;38.10;26.10;;;;;;;;;;5055883;28;20060;-66
2022/01/01 07:10:10;;;;;;;48.50;31.27;;;;;;;;;;5055418;28;20108;-69
2022/01/01 07:12:37;;;;;;;58.45;36.13;;;;;;;;;;5055724;28;20410;-62
2022/01/01 07:15:03;;;;;;;57.05;38.30;;;;;;;;;;5043312;28;20558;-64
2022/01/01 07:17:29;;;;;;;56.50;38.90;;;;;;;;;;5035866;28;20025;-69
2022/01/01 07:19:55;;;;;;;44.05;30.75;;;;;;;;;;5035718;28;20032;-67
2022/01/01 07:22:21;;;;;;;37.30;28.52;;;;;;;;;;5035702;28;20025;-68
2022/01/01 07:24:49;;;;;;;40.58;29.33;;;;;;;;;;5035435;28;20048;-67
2022/01/01 07:27:16;;;;;;;42.25;27.83;;;;;;;;;;5035405;28;20021;-64
2022/01/01 07:29:42;;;;;;;37.92;27.75;;;;;;;;;;5035417;28;20083;-64
2022/01/01 07:32:09;;;;;;;38.15;26.58;;;;;;;;;;5035316;28;20054;-63
2022/01/01 07:34:35;;;;;;;56.25;36.30;;;256.00;2252.80;;;;;;5035263;28;20037;-67
2022/01/01 07:37:01;;;;;;;46.65;32.10;;;;;;;;;;5033389;28;20026;-69
2022/01/01 07:39:27;;;;;;;84.13;54.67;;;;;;;;;;5042980;28;20071;-67
2022/01/01 07:41:53;;;;;;;42.45;28.60;;;;;;;;;;5055045;28;20383;-70
2022/01/01 07:44:19;;;;;;;35.70;23.88;;;;;;;;;;5055172;28;20095;-70
2022/01/01 07:46:45;;;;;;;41.35;27.60;;;;;;;;;;5055139;28;20017;-69
2022/01/01 07:49:11;;;;;;;46.30;28.88;;;;;;;;;;5055059;28;20029;-68
2022/01/01 07:51:37;;;;;;;46.70;31.67;;;;;;;;;;5038018;28;20036;-66
2022/01/01 07:54:03;;;;;;;37.47;28.15;;;;;;;;;;5035015;28;20038;-66
2022/01/01 07:56:29;;;;;;;41.10;26.80;;;;;;;;;;5034809;28;20021;-68
2022/01/01 07:58:55;;;;;;;38.40;26.27;;;;;;;;;;5034870;28;20037;-67
2022/01/01 08:01:22;;;;;;;40.45;28.25;;;;;;;;;;5034459;28;20033;-67
2022/01/01 08:03:49;;;;;;;38.30;28.40;;;;;;;;;;5034731;28;20029;-66
2022/01/01 08:06:16;;;;;;;48.08;29.83;;;333.70;2329.60;;;;;;5034716;28;20160;-70
2022/01/01 08:08:42;;;;;;;42.70;30.33;;;;;;;;;;5035921;28;20025;-68
2022/01/01 08:11:08;;;;;;;41.13;29.42;;;;;;;;;;5040157;28;20023;-68
2022/01/01 08:13:36;;;;;;;58.08;32.35;;;;;;;;;;5034148;28;20033;-65
2022/01/01 08:16:02;;;;;;;52.80;33.30;;;;;;;;;;5033910;28;20032;-67
2022/01/01 08:18:29;;;;;;;45.80;28.73;;;;;;;;;;5034154;28;20075;-68
2022/01/01 08:20:56;;;;;;;36.72;25.25;;;384.30;2329.60;;;;;;5033693;28;20427;-68
2022/01/01 08:23:22;;;;;;;27.35;18.83;;;;;;;;;;5033938;28;20032;-68
2022/01/01 08:25:49;;;;;;;24.10;17.75;;;;;;;;;;5046018;28;20024;-64
2022/01/01 08:28:15;;;;;;;31.17;20.70;;;384.90;2201.60;;;;;;5034990;28;20040;-63
2022/01/01 08:30:40;;;;;;;31.95;21.30;;;409.60;2201.60;;;;;;5033915;28;20053;-69
2022/01/01 08:33:07;;;;;;;32.05;22.58;;;;;;;;;;5034583;28;20041;-68
2022/01/01 08:35:34;;;;;;;38.85;24.95;;;;;;;;;;5034324;28;20111;-66
2022/01/01 08:38:03;;;;;;;30.15;22.45;;;409.90;2278.40;;;;;;5034077;28;20029;-65
2022/01/01 08:40:30;;;;;;;21.27;14.85;;;410.00;2099.20;;;;;;5050098;28;20025;-62
2022/01/01 08:42:55;;;;;;;19.67;14.20;;;410.10;2329.60;;;;;;5041939;28;20130;-67
2022/01/01 08:45:22;;;;;;;20.48;14.65;;;;;;;;;;5033450;28;20045;-61
2022/01/01 08:47:48;;;;;;;19.83;14.40;;;;;;;;;;5034230;28;20033;-69
2022/01/01 08:50:15;;;;;;;20.52;14.57;;;;;;;;;;5033967;28;20029;-68
2022/01/01 08:52:41;;;;;;;24.33;16.63;;;;;;;;;;5033470;28;20017;-68
2022/01/01 08:55:08;;;;;;;23.65;17.45;;;;;;;;;;5033279;28;20057;-69
2022/01/01 08:57:34;;;;;;;26.80;17.85;;;;;;;;;;5033621;28;20091;-69
2022/01/01 09:00:01;;;;;;;20.25;13.75;;;;;;;;;;5033876;28;20033;-68
2022/01/01 09:02:28;;;;;;;19.23;13.57;;;;;;;;;;5033594;28;20030;-67
2022/01/01 09:04:54;;;;;;;18.42;13.65;;;;;;;;;;5033747;28;20030;-70
2022/01/01 09:07:20;;;;;;;21.15;12.68;;;;;;;;;;5033766;28;20390;-69
2022/01/01 09:09:46;;;;;;;21.30;13.05;;;;;;;;;;5043471;28;20019;-64
2022/01/01 09:12:12;;;;;;;19.08;12.38;;;410.20;1945.60;;;;;;5052506;28;20096;-66
2022/01/01 09:14:38;;;;;;;19.55;12.27;;;410.30;1971.20;;;;;;5052912;28;20124;-63
2022/01/01 09:17:06;;;;;;;28.27;19.52;;;410.00;1996.80;;;;;;5053674;28;20032;-65
2022/01/01 09:19:32;;;;;;;29.48;19.00;;;410.00;1996.80;;;;;;5049790;28;20024;-63
2022/01/01 09:21:58;;;;;;;18.83;13.32;;;410.10;1996.80;;;;;;5053153;28;20070;-68
2022/01/01 09:24:24;;;;;;;27.23;16.38;;;410.00;1996.80;;;;;;5053853;28;20111;-63
2022/01/01 09:26:50;;;;;;;27.38;15.23;;;;;;;;;;5052838;28;20096;-64
2022/01/01 09:29:18;;;;;;;19.08;13.73;;;;;;;;;;5053438;28;20048;-65
2022/01/01 09:31:45;;;;;;;50.72;32.08;;;;;;;;;;5052973;28;20041;-63
2022/01/01 09:34:11;;;;;;;29.65;19.77;;;;;;;;;;5053173;28;20443;-68
2022/01/01 09:36:37;;;;;;;31.50;21.10;;;;;;;;;;5052873;28;20056;-67
2022/01/01 09:39:04;;;;;;;30.80;18.35;;;;;;;;;;5052596;28;20020;-68
2022/01/01 09:41:30;;;;;;;29.65;22.75;;;;;;;;;;5052519;28;20395;-69
2022/01/01 09:43:57;;;;;;;26.45;16.80;;;;;;;;;;5052795;28;20021;-69
2022/01/01 09:46:26;;;;;;;27.48;16.55;;;;;;;;;;5052771;28;20064;-69
2022/01/01 09:48:52;;;;;;;31.80;17.35;;;;;;;;;;5052625;28;20391;-67
2022/01/01 09:51:21;;;;;;;36.25;15.85;;;;;;;;;;5053288;28;20033;-67
2022/01/01 09:53:48;;;;;;;27.38;17.05;;;;;;;;;;5052947;28;20028;-64
2022/01/01 09:56:14;;;;;;;33.85;17.67;;;;;;;;;;5052640;28;20056;-70
2022/01/01 09:58:40;;;;;;;44.03;23.10;;;;;;;;;;5052396;28;20108;-68
2022/01/01 10:01:07;;;;;;;34.15;21.80;;;;;;;;;;5052646;28;20475;-70
2022/01/01 10:03:35;;;;;;;45.47;22.92;;;;;;;;;;5052742;28;20060;-69
2022/01/01 10:06:08;;;;;;;49.38;25.73;;;;;;;;;;5052260;28;20025;-64
2022/01/01 10:08:36;;;;;;;35.95;19.98;;;;;;;;;;5052155;28;20021;-65
2022/01/01 10:11:02;;;;;;;30.13;18.40;;;;;;;;;;5052217;28;20157;-69
2022/01/01 10:13:33;;;;;;;24.50;16.55;;;;;;;;;;5050237;28;20471;-69
2022/01/01 10:16:00;;;;;;;19.48;13.23;;;;;;;;;;5032537;28;20075;-69
2022/01/01 10:18:27;;;;;;;21.58;15.43;;;717.10;972.80;;;;;;5032409;28;20024;-66
2022/01/01 10:21:00;;;;;;;23.20;13.50;;;;;;;;;;5032315;28;20033;-71
2022/01/01 10:23:29;;;;;;;13.50;10.80;;;;;;;;;;5032447;28;20025;-71
2022/01/01 10:28:57;;;;;;;22.13;12.05;;;;;;;;;;5032691;28;20506;-67
2022/01/01 10:31:23;;;;;;;19.88;14.65;;;;;;;;;;5032419;28;20041;-69
2022/01/01 10:33:50;;;;;;;18.63;15.13;;;;;;;;;;5032759;28;20042;-69
2022/01/01 10:36:20;;;;;;;35.88;25.13;;;;;;;;;;5036039;28;20025;-68
2022/01/01 10:38:46;;;;;;;22.60;17.95;;;;;;;;;;5037429;28;20445;-69
2022/01/01 10:41:13;;;;;;;26.15;20.58;;;;;;;;;;5055922;28;20025;-70
2022/01/01 10:43:40;;;;;;;22.35;17.80;;;;;;;;;;5056103;28;20025;-68
2022/01/01 10:46:08;;;;;;;39.10;19.92;;;;;;;;;;5050614;28;20036;-72
2022/01/01 10:51:07;;;;;;;16.10;11.50;;;;;;;;;;5036143;28;20040;-70
2022/01/01 10:53:33;;;;;;;19.30;12.45;;;;;;;;;;5035972;28;20032;-69
2022/01/01 10:56:00;;;;;;;23.88;14.52;;;;;;;;;;5035823;28;20033;-70
2022/01/01 10:58:28;;;;;;;20.92;12.90;;;;;;;;;;5035962;28;20021;-70
2022/01/01 11:01:14;;;;;;;11.85;9.25;;;;;;;;;;5035910;28;20041;-68
2022/01/01 11:03:41;;;;;;;18.60;9.40;;;;;;;;;;5035445;28;20033;-69
2022/01/01 11:06:10;;;;;;;12.45;8.93;;;;;;;;;;5035600;28;20024;-66
2022/01/01 11:08:37;;;;;;;17.27;8.25;;;;;;;;;;5035488;28;20104;-64
2022/01/01 11:11:03;;;;;;;11.30;8.15;;;640.30;1049.60;;;;;;5055488;28;20021;-69
2022/01/01 11:13:30;;;;;;;8.43;6.88;;;;;;;;;;5055222;28;20025;-71
2022/01/01 11:15:56;;;;;;;10.88;9.20;;;;;;;;;;5055386;28;20029;-70
2022/01/01 11:18:23;;;;;;;19.67;12.57;;;589.50;1203.20;;;;;;5055308;28;20021;-69
2022/01/01 11:20:50;;;;;;;20.40;12.98;;;;;;;;;;5055374;28;20425;-71
2022/01/01 11:23:16;;;;;;;21.23;13.65;;;;;;;;;;5055364;28;20029;-70
2022/01/01 11:25:42;;;;;;;19.92;14.27;;;;;;;;;;5055242;28;20033;-70
2022/01/01 11:28:10;;;;;;;17.92;12.43;;;;;;;;;;5055250;28;20170;-67
2022/01/01 11:30:38;;;;;;;20.55;12.70;;;;;;;;;;5055155;28;20510;-70
2022/01/01 11:33:04;;;;;;;13.00;9.25;;;;;;;;;;5054909;28;20024;-70
2022/01/01 11:35:32;;;;;;;18.20;12.90;;;;;;;;;;5054857;28;20064;-70
2022/01/01 11:38:08;;;;;;;16.98;10.95;;;;;;;;;;5054801;28;20024;-70
2022/01/01 11:40:46;;;;;;;20.75;12.63;;;;;;;;;;5054867;28;20037;-70
2022/01/01 11:43:31;;;;;;;23.02;12.18;;;;;;;;;;5054982;28;20033;-70
2022/01/01 11:46:16;;;;;;;17.15;12.13;;;;;;;;;;5053426;28;20021;-70
2022/01/01 11:48:46;;;;;;;21.98;19.67;;;;;;;;;;5054647;28;20017;-67
2022/01/01 11:51:35;;;;;;;15.55;9.73;;;;;;;;;;5054697;28;20028;-64
2022/01/01 11:54:13;;;;;;;23.83;18.10;;;486.60;1510.40;;;;;;5055007;28;20035;-70
2022/01/01 11:56:52;;;;;;;21.52;15.15;;;;;;;;;;5054453;28;20494;-67
2022/01/01 11:59:18;;;;;;;21.13;14.65;;;;;;;;;;5054578;28;20074;-66
2022/01/01 12:01:45;;;;;;;19.48;15.23;;;;;;;;;;5054910;28;20029;-69
2022/01/01 12:04:24;;;;;;;32.83;22.67;;;;;;;;;;5054537;28;20033;-69
2022/01/01 12:06:58;;;;;;;27.90;16.92;;;;;;;;;;5054336;28;20021;-69
2022/01/01 12:09:24;;;;;;;20.27;14.27;;;;;;;;;;5054169;28;20020;-67
2022/01/01 12:11:54;;;;;;;27.90;16.27;;;;;;;;;;5053418;28;20033;-70
2022/01/01 12:14:25;;;;;;;26.77;13.73;;;;;;;;;;5037454;28;20026;-69
2022/01/01 12:16:52;;;;;;;24.53;14.33;;;;;;;;;;5037747;28;20033;-66
2022/01/01 12:19:20;;;;;;;19.10;13.82;;;;;;;;;;5038920;28;20300;-69
2022/01/01 12:21:48;;;;;;;39.58;19.52;;;;;;;;;;5033748;28;20026;-66
2022/01/01 12:24:19;;;;;;;30.13;19.83;;;;;;;;;;5045102;28;20383;-68
2022/01/01 12:26:53;;;;;;;38.20;22.67;;;;;;;;;;5033228;28;20384;-64
2022/01/01 12:29:22;;;;;;;23.80;16.83;;;;;;;;;;5034393;28;20396;-67
2022/01/01 12:31:58;;;;;;;27.08;16.05;;;;;;;;;;5033744;28;20042;-64
2022/01/01 12:34:24;;;;;;;21.80;14.60;;;;;;;;;;5034219;28;20069;-67
2022/01/01 12:36:52;;;;;;;20.90;13.60;;;;;;;;;;5032348;28;20036;-64
2022/01/01 12:39:18;;;;;;;31.08;15.38;;;;;;;;;;5039101;28;20036;-68
2022/01/01 12:41:45;;;;;;;25.45;15.50;;;;;;;;;;5052206;28;20434;-63
2022/01/01 12:44:14;;;;;;;23.52;17.60;;;;;;;;;;5051339;28;20389;-63
2022/01/01 12:46:45;;;;;;;26.02;17.33;;;;;;;;;;5033524;28;20079;-63
2022/01/01 12:49:11;;;;;;;;;;;;;;;;;;5034048;28;20112;-65
2022/01/01 12:51:37;;;;;;;22.45;15.25;;;;;;;;;;5033744;28;19944;-64
2022/01/01 12:54:08;;;;;;;29.13;17.83;;;;;;;;;;5033143;28;20032;-64
2022/01/01 12:56:35;;;;;;;28.35;20.45;;;563.50;1408.00;;;;;;5032380;28;20036;-64
2022/01/01 12:59:07;;;;;;;41.90;22.52;;;563.50;1408.00;;;;;;5052644;28;20013;-72
2022/01/01 13:01:33;;;;;;;31.38;23.83;;;;;;;;;;5052681;28;20379;-67
2022/01/01 13:04:01;;;;;;;31.20;20.25;;;;;;;;;;5053220;28;20033;-64
2022/01/01 13:06:59;;;;;;;29.00;21.52;;;564.00;1356.80;;;;;;5053316;28;20035;-66
2022/01/01 13:09:29;;;;;;;29.90;18.33;;;564.00;1459.20;;;;;;5050905;28;20458;-65
2022/01/01 13:12:01;;;;;;;22.73;16.75;;;564.10;1331.20;;;;;;5050821;28;20024;-67
2022/01/01 13:14:27;;;;;;;;;;;;;;;;;;5051271;28;20056;-70
2022/01/01 13:16:53;;;;;;;22.50;14.77;;;;;;;;;;5050826;28;19949;-63
2022/01/01 13:19:20;;;;;;;30.00;19.48;;;;;;;;;;5050711;28;20143;-67
2022/01/01 13:21:46;;;;;;;30.75;20.50;;;;;;;;;;5036911;28;20037;-67
2022/01/01 13:24:12;;;;;;;35.00;30.50;;;;;;;;;;5030554;28;20148;-64
2022/01/01 13:26:39;;;;;;;25.17;12.70;;;;;;;;;;5030357;28;20172;-68
2022/01/01 13:29:05;;;;;;;23.40;13.48;;;;;;;;;;5034384;28;20467;-64
2022/01/01 13:31:36;;;;;;;18.90;13.48;;;588.90;1280.00;;;;;;5040463;28;20397;-66
2022/01/01 13:34:02;;;;;;;28.45;15.30;;;588.80;1280.00;;;;;;5026034;28;20059;-65
2022/01/01 13:36:39;;;;;;;24.30;14.55;;;564.10;1305.60;;;;;;5049144;28;20427;-69
2022/01/01 13:39:11;;;;;;;21.10;15.27;;;564.00;1331.20;;;;;;5048208;28;20033;-67
2022/01/01 13:41:45;;;;;;;28.52;21.30;;;563.90;1331.20;;;;;;5033961;28;20079;-71
2022/01/01 13:44:27;;;;;;;33.08;23.08;;;563.80;1331.20;;;;;;5043580;28;20045;-68
2022/01/01 13:47:14;;;;;;;21.75;16.75;;;563.90;1356.80;;;;;;5036229;28;20033;-68
2022/01/01 13:50:00;;;;;;;28.65;24.38;;;563.60;1356.80;;;;;;5035903;28;20027;-66